ADDS METAR Data INFO
IDs: Format: Raw Decoded Include TAF

Data at: 1411 UTC 12 Dec 2017

KOWD 121353Z 11003KT 10SM SCT031 OVC040 04/01 A2976 RMK AO2 SLP079 T00390006
KOWD 121253Z 10008KT 10SM SCT046 BKN080 03/00 A2978 RMK AO2 SLP084 T00330000
KOWD 121153Z 00000KT 10SM OVC046 00/M02 A2982 RMK AO2 SLP098 T00001022 10000 21017 58031
KOWD 121053Z AUTO 00000KT 10SM OVC041 00/M02 A2987 RMK AO2 SLP114 T00001022
KOWD 120953Z AUTO 00000KT 10SM BKN045 OVC049 M01/M02 A2989 RMK AO2 SLP120 T10061022
KOWD 120853Z AUTO 00000KT 10SM FEW046 BKN055 OVC085 M01/M02 A2991 RMK AO2 SLP129 T10061022 58024
KOWD 120753Z AUTO 00000KT 10SM BKN039 OVC047 M01/M03 A2996 RMK AO2 SLP145 T10111028
KOWD 120653Z AUTO 28003KT 10SM FEW040 OVC055 M01/M03 A2997 RMK AO2 SLP148 T10111033
KOWD 120553Z AUTO 00000KT 10SM OVC100 M02/M03 A2998 RMK AO2 SLP154 T10171033 11011 21033 56012
KOWD 120453Z AUTO 00000KT 10SM FEW047 SCT110 M02/M04 A3000 RMK AO2 SLP158 T10171039 400391033
KOWD 120353Z AUTO 00000KT 10SM SCT120 M02/M03 A3000 RMK AO2 SLP160 T10171033
KOWD 120253Z AUTO 00000KT 10SM SCT120 M02/M04 A3002 RMK AO2 SLP166 T10221039 56003
KOWD 120153Z AUTO 00000KT 10SM CLR M02/M04 A3003 RMK AO2 SLP168 T10221039
KOWD 120053Z 00000KT 10SM CLR M03/M04 A3002 RMK AO2 SLP167 T10281044
KOWD 112353Z 00000KT 10SM CLR M03/M06 A3003 RMK AO2 SLP169 T10331056 10039 21033 51014
KOWD 112253Z 00000KT 10SM FEW055 M02/M05 A3002 RMK AO2 SLP167 T10171050
KOWD 112153Z 00000KT 10SM CLR 00/M06 A3001 RMK AO2 SLP162 T00001056
KOWD 112053Z 26005KT 10SM CLR 02/M06 A2999 RMK AO2 SLP155 T00221061 53011
KOWD 111953Z 25009KT 10SM BKN048 03/M06 A2997 RMK AO2 SLP148 T00331056
KOWD 111853Z 27010KT 10SM CLR 04/M06 A2995 RMK AO2 SLP144 T00391056
KOWD 111753Z 25009KT 10SM FEW039 04/M05 A2996 RMK AO2 SLP145 T00391050 10039 20006 56012
KOWD 111653Z COR 25007KT 10SM SCT060 03/M04 A2997 RMK AO2 SLP149 T00331044
KOWD 111553Z 24008KT 10SM FEW085 02/M04 A2997 RMK AO2 SLP150 T00221044
KOWD 111453Z VRB06KT 10SM OVC090 02/M04 A2999 RMK AO2 SLP156 T00171039 51009
KOWD 111353Z 23009KT 10SM OVC095 01/M04 A2998 RMK AO2 SLP153 T00111044
KOWD 111253Z 21006KT 10SM OVC050 01/M04 A2998 RMK AO2 SLP153 T00061044
KOWD 111153Z 21007KT 10SM OVC065 01/M04 A2996 RMK AO2 SLP147 T00061044 10011 20006 52011
KOWD 111053Z AUTO 22006KT 10SM BKN065 OVC085 01/M04 A2995 RMK AO2 SLP143 T00061044
KOWD 110953Z AUTO 23004KT 10SM OVC110 01/M04 A2994 RMK AO2 SLP140 T00061044
KOWD 110853Z AUTO 20006KT 10SM OVC085 01/M04 A2993 RMK AO2 SLP136 T00111044 57008
KOWD 110753Z AUTO 22006KT 10SM OVC085 01/M04 A2994 RMK AO2 SLP138 T00111044
KOWD 110653Z AUTO 22006KT 10SM OVC090 01/M04 A2995 RMK AO2 SLP143 T00111044
KOWD 110553Z AUTO 22004KT 10SM SCT085 OVC110 01/M04 A2996 RMK AO2 SLP145 I6002 T00111044 10017 21056 55000
KOWD 110453Z AUTO 22004KT 10SM OVC120 02/M04 A2995 RMK AO2 SLP144 T00171044 400331056
KOWD 110353Z AUTO 21005KT 10SM OVC100 01/M04 A2996 RMK AO2 SLP145 T00111044
KOWD 110253Z AUTO 00000KT 10SM BKN110 M02/M04 A2996 RMK AO2 SLP145 I3002 T10171044 51008